createdAt,value
2023-03-11T00:01:00.868Z,9.79
2023-03-11T00:04:09.221Z,9.81
2023-03-11T00:07:21.142Z,9.81
2023-03-11T00:10:49.251Z,9.76
2023-03-11T00:14:17.540Z,9.69
2023-03-11T00:17:26.347Z,9.68
2023-03-11T00:20:15.959Z,9.68
2023-03-11T00:23:44.039Z,9.65
2023-03-11T00:27:12.047Z,9.64
2023-03-11T00:30:40.263Z,9.56
2023-03-11T00:34:07.974Z,9.52
2023-03-11T00:37:35.658Z,9.48
2023-03-11T00:40:44.664Z,9.47
2023-03-11T00:44:12.739Z,9.44
2023-03-11T00:47:40.791Z,9.44
2023-03-11T00:51:08.434Z,9.45
2023-03-11T00:54:16.308Z,9.48
2023-03-11T00:57:44.380Z,9.48
2023-03-11T01:01:12.582Z,9.43
2023-03-11T01:04:21.566Z,9.37
2023-03-11T01:07:49.306Z,9.41
2023-03-11T01:11:17.126Z,9.41
2023-03-11T01:14:45.395Z,9.38
2023-03-11T01:18:13.402Z,9.37
2023-03-11T01:21:41.048Z,9.35
2023-03-11T01:25:09.006Z,9.29
2023-03-11T01:28:37.341Z,9.20
2023-03-11T01:32:05.435Z,9.16
2023-03-11T01:35:13.817Z,9.15
2023-03-11T01:38:41.962Z,9.15
2023-03-11T01:42:10.225Z,9.00
2023-03-11T01:45:38.411Z,8.98
2023-03-11T01:49:06.517Z,8.96
2023-03-11T01:52:34.533Z,8.94
2023-03-11T01:56:02.801Z,8.88
2023-03-11T01:59:26.523Z,8.85
2023-03-11T02:02:54.450Z,8.79
2023-03-11T02:06:22.642Z,8.69
2023-03-11T02:09:50.854Z,8.62
2023-03-11T02:13:19.020Z,8.59
2023-03-11T02:16:46.768Z,8.55
2023-03-11T02:19:57.105Z,8.53
2023-03-11T02:23:24.858Z,8.50
2023-03-11T02:26:33.814Z,8.51
2023-03-11T02:30:01.745Z,8.49
2023-03-11T02:33:07.928Z,8.45
2023-03-11T02:43:43.058Z,8.46
2023-03-11T02:47:11.608Z,8.47
2023-03-11T02:50:39.613Z,8.49
2023-03-11T02:54:04.373Z,8.48
2023-03-11T02:57:32.703Z,8.51
2023-03-11T03:01:01.089Z,8.54
2023-03-11T03:03:50.331Z,8.51
2023-03-11T03:07:18.261Z,8.53
2023-03-11T03:10:46.169Z,8.54
2023-03-11T03:14:13.876Z,8.56
2023-03-11T03:17:42.435Z,8.58
2023-03-11T03:21:10.169Z,8.64
2023-03-11T03:24:38.205Z,8.63
2023-03-11T03:27:46.350Z,8.62
2023-03-11T03:31:14.355Z,8.59
2023-03-11T03:34:42.321Z,8.55
2023-03-11T03:38:10.413Z,8.55
2023-03-11T03:41:26.049Z,8.54
2023-03-11T03:44:54.109Z,8.53
2023-03-11T03:48:11.056Z,8.50
2023-03-11T03:51:19.330Z,8.45
2023-03-11T03:54:50.951Z,8.43
2023-03-11T03:58:18.891Z,8.45
2023-03-11T04:01:10.277Z,8.48
2023-03-11T04:04:38.064Z,8.50
2023-03-11T04:08:06.147Z,8.48
2023-03-11T04:11:22.115Z,8.47
2023-03-11T04:14:50.312Z,8.51
2023-03-11T04:18:18.807Z,8.48
2023-03-11T04:21:34.602Z,8.45
2023-03-11T04:25:04.190Z,8.38
2023-03-11T04:28:32.094Z,8.36
2023-03-11T04:31:41.841Z,8.37
2023-03-11T04:34:51.010Z,8.35
2023-03-11T04:38:00.580Z,8.33
2023-03-11T04:41:16.433Z,8.29
2023-03-11T04:44:25.387Z,8.28
2023-03-11T04:47:33.350Z,8.29
2023-03-11T04:51:01.944Z,8.29
2023-03-11T04:54:29.814Z,8.28
2023-03-11T04:57:57.787Z,8.26
2023-03-11T05:01:08.047Z,8.25
2023-03-11T05:04:36.031Z,8.23
2023-03-11T05:07:32.728Z,8.14
2023-03-11T05:11:00.867Z,8.14
2023-03-11T05:14:28.735Z,8.13
2023-03-11T05:17:57.044Z,8.13
2023-03-11T05:21:25.163Z,8.12
2023-03-11T05:24:22.235Z,8.11
2023-03-11T05:27:50.019Z,8.13
2023-03-11T05:31:18.291Z,8.17
2023-03-11T05:34:46.580Z,8.15
2023-03-11T05:38:10.656Z,8.16
2023-03-11T05:41:38.642Z,8.15
2023-03-11T05:45:06.754Z,8.13
2023-03-11T05:48:16.460Z,8.12
2023-03-11T05:51:46.766Z,8.12
2023-03-11T05:55:02.965Z,8.10
2023-03-11T05:58:32.327Z,8.08
2023-03-11T06:02:00.153Z,8.07
2023-03-11T06:05:28.453Z,8.15
2023-03-11T06:08:56.184Z,8.24
2023-03-11T06:12:24.629Z,8.35
2023-03-11T06:16:08.112Z,8.47
2023-03-11T06:19:16.213Z,8.55
2023-03-11T06:22:44.500Z,8.65
2023-03-11T06:26:12.599Z,8.75
2023-03-11T06:29:40.957Z,8.84
2023-03-11T06:33:01.380Z,8.94
2023-03-11T06:36:29.229Z,9.06
2023-03-11T06:39:57.408Z,9.19
2023-03-11T06:43:22.202Z,9.31
2023-03-11T06:46:30.758Z,9.42
2023-03-11T06:49:39.096Z,9.51
2023-03-11T06:52:54.652Z,9.56
2023-03-11T06:56:22.351Z,9.58
2023-03-11T06:59:50.465Z,9.64
2023-03-11T07:02:59.550Z,9.66
2023-03-11T07:06:08.836Z,9.68
2023-03-11T07:09:16.956Z,9.68
2023-03-11T07:12:42.753Z,9.69
2023-03-11T07:16:11.145Z,9.71
2023-03-11T07:19:39.439Z,9.57
2023-03-11T07:23:07.579Z,9.44
2023-03-11T07:26:35.452Z,9.23
2023-03-11T07:30:03.579Z,8.95
2023-03-11T07:33:34.168Z,8.81
2023-03-11T07:36:59.401Z,8.70
2023-03-11T07:40:08.182Z,8.61
2023-03-11T07:43:36.912Z,8.50
2023-03-11T07:47:05.190Z,8.42
2023-03-11T07:50:15.497Z,8.34
2023-03-11T07:53:44.620Z,8.26
2023-03-11T07:57:12.766Z,8.10
2023-03-11T08:00:40.719Z,7.82
2023-03-11T08:04:08.684Z,7.73
2023-03-11T08:07:36.774Z,7.57
2023-03-11T08:10:45.790Z,7.54
2023-03-11T08:14:14.395Z,7.43
2023-03-11T08:17:42.593Z,7.49
2023-03-11T08:21:10.586Z,7.40
2023-03-11T08:24:38.526Z,7.39
2023-03-11T08:28:06.921Z,7.36
2023-03-11T08:31:34.946Z,7.35
2023-03-11T08:35:02.680Z,7.27
2023-03-11T08:38:30.821Z,7.23
2023-03-11T08:41:58.888Z,7.16
2023-03-11T08:45:27.029Z,7.01
2023-03-11T08:48:54.892Z,6.86
2023-03-11T08:52:22.913Z,6.59
2023-03-11T08:55:50.784Z,6.37
2023-03-11T08:59:20.032Z,6.36
2023-03-11T09:02:28.364Z,6.24
2023-03-11T09:05:56.676Z,6.17
2023-03-11T09:09:24.634Z,6.23
2023-03-11T09:12:48.866Z,6.32
2023-03-11T09:16:17.313Z,6.25
2023-03-11T09:19:47.663Z,6.17
2023-03-11T09:23:18.584Z,6.17
2023-03-11T09:30:25.383Z,6.12
2023-03-11T09:33:49.535Z,6.21
2023-03-11T09:40:46.566Z,6.35
2023-03-11T09:47:38.305Z,6.49
2023-03-11T09:54:26.458Z,6.77
2023-03-11T10:01:16.716Z,6.94
2023-03-11T10:04:45.884Z,7.02
2023-03-11T10:08:14.042Z,7.11
2023-03-11T10:11:23.824Z,7.13
2023-03-11T10:14:51.951Z,7.14
2023-03-11T10:18:20.334Z,7.13
2023-03-11T10:21:29.611Z,7.23
2023-03-11T10:24:57.430Z,7.13
2023-03-11T10:28:25.543Z,7.22
2023-03-11T10:31:34.193Z,7.24
2023-03-11T10:35:02.325Z,7.28
2023-03-11T10:38:11.657Z,7.33
2023-03-11T10:41:40.590Z,7.26
2023-03-11T10:45:09.237Z,7.18
2023-03-11T10:48:37.280Z,7.14
2023-03-11T10:52:05.371Z,7.12
2023-03-11T10:55:33.418Z,7.08
2023-03-11T10:59:01.220Z,7.13
2023-03-11T11:02:29.091Z,7.14
2023-03-11T11:05:53.500Z,7.22
2023-03-11T11:12:53.459Z,7.21
2023-03-11T11:16:02.313Z,7.25
2023-03-11T11:19:30.834Z,7.31
2023-03-11T11:22:58.982Z,7.34
2023-03-11T11:26:27.080Z,7.49
2023-03-11T11:33:23.884Z,7.68
2023-03-11T11:36:51.682Z,7.74
2023-03-11T11:40:16.122Z,7.56
2023-03-11T11:47:10.787Z,7.47
2023-03-11T11:53:57.189Z,7.35
2023-03-11T11:57:25.384Z,7.36
2023-03-11T12:00:50.096Z,7.45
2023-03-11T12:04:18.156Z,7.39
2023-03-11T12:07:46.308Z,7.35
2023-03-11T12:11:14.489Z,7.29
2023-03-11T12:14:42.577Z,7.32
2023-03-11T12:18:10.806Z,7.36
2023-03-11T12:21:38.967Z,7.35
2023-03-11T12:25:08.190Z,7.33
2023-03-11T12:28:34.120Z,7.36
2023-03-11T12:32:01.906Z,7.39
2023-03-11T12:35:30.036Z,7.49
2023-03-11T12:38:57.893Z,7.37
2023-03-11T12:42:25.902Z,7.36
2023-03-11T12:45:53.752Z,7.41
2023-03-11T12:49:21.714Z,7.44
2023-03-11T12:52:31.828Z,7.49
2023-03-11T12:55:40.671Z,7.52
2023-03-11T12:59:08.842Z,7.45
2023-03-11T13:02:37.106Z,7.52
2023-03-11T13:09:31.526Z,7.40
2023-03-11T13:19:58.839Z,7.56
2023-03-11T13:26:55.303Z,7.50
2023-03-11T13:30:23.147Z,7.51
2023-03-11T13:33:47.742Z,7.45
2023-03-11T13:40:32.232Z,7.53
2023-03-11T13:47:43.528Z,7.71
2023-03-11T13:51:20.845Z,7.89
2023-03-11T13:58:34.830Z,8.85
2023-03-11T14:02:05.708Z,9.18
2023-03-11T14:05:33.680Z,9.56
2023-03-11T14:09:01.551Z,9.68
2023-03-11T14:12:29.687Z,9.28
2023-03-11T14:15:41.806Z,8.97
2023-03-11T14:18:58.984Z,8.66
2023-03-11T14:22:27.146Z,8.43
2023-03-11T14:25:54.838Z,8.54
2023-03-11T14:29:22.966Z,8.97
2023-03-11T14:32:51.208Z,9.18
2023-03-11T14:36:18.976Z,9.33
2023-03-11T14:39:51.023Z,9.92
2023-03-11T14:43:14.749Z,9.88
2023-03-11T14:46:45.214Z,9.64
2023-03-11T14:50:10.777Z,9.20
2023-03-11T14:53:38.632Z,9.32
2023-03-11T14:57:06.746Z,9.28
2023-03-11T15:00:35.367Z,9.94
2023-03-11T15:04:03.544Z,10.61
2023-03-11T15:07:33.408Z,11.06
2023-03-11T15:11:01.418Z,11.02
2023-03-11T15:14:27.893Z,10.34
2023-03-11T15:17:42.887Z,9.85
2023-03-11T15:21:04.646Z,9.36
2023-03-11T15:24:32.537Z,9.35
2023-03-11T15:27:41.309Z,9.20
2023-03-11T15:31:09.513Z,9.15
2023-03-11T15:34:18.109Z,9.30
2023-03-11T15:37:46.310Z,9.10
2023-03-11T15:41:14.270Z,8.88
2023-03-11T15:44:38.359Z,8.72
2023-03-11T15:47:47.463Z,8.74
2023-03-11T15:51:15.588Z,8.92
2023-03-11T15:54:54.502Z,9.17
2023-03-11T15:58:11.701Z,9.54
2023-03-11T16:01:22.305Z,9.48
2023-03-11T16:04:50.362Z,9.32
2023-03-11T16:08:18.445Z,9.14
2023-03-11T16:11:46.751Z,8.86
2023-03-11T16:15:15.253Z,8.54
2023-03-11T16:18:43.383Z,8.13
2023-03-11T16:22:11.472Z,7.89
2023-03-11T16:25:39.565Z,7.60
2023-03-11T16:28:33.563Z,7.43
2023-03-11T16:32:01.723Z,7.17
2023-03-11T16:35:29.995Z,6.93
2023-03-11T16:38:58.227Z,6.75
2023-03-11T16:42:26.818Z,6.49
2023-03-11T16:45:54.866Z,6.30
2023-03-11T16:49:22.540Z,6.17
2023-03-11T16:52:50.759Z,6.02
2023-03-11T16:56:18.687Z,5.83
2023-03-11T16:59:46.613Z,5.79
2023-03-11T17:03:14.401Z,5.70
2023-03-11T17:10:02.676Z,5.47
2023-03-11T17:13:31.057Z,5.32
2023-03-11T17:16:59.368Z,5.22
2023-03-11T17:20:27.046Z,5.10
2023-03-11T17:27:17.016Z,4.92
2023-03-11T17:34:24.081Z,4.74
2023-03-11T17:37:29.847Z,4.70
2023-03-11T17:40:54.721Z,4.61
2023-03-11T17:47:56.390Z,4.46
2023-03-11T17:51:05.234Z,4.38
2023-03-11T17:54:35.838Z,4.34
2023-03-11T18:01:44.447Z,4.18
2023-03-11T18:04:53.492Z,4.13
2023-03-11T18:08:22.689Z,4.06
2023-03-11T18:11:50.594Z,4.00
2023-03-11T18:15:18.565Z,3.94
2023-03-11T18:18:46.339Z,3.86
2023-03-11T18:22:13.993Z,3.78
2023-03-11T18:25:24.225Z,3.72
2023-03-11T18:28:52.735Z,3.64
2023-03-11T18:32:20.906Z,3.53
2023-03-11T18:35:49.152Z,3.47
2023-03-11T18:38:57.765Z,3.45
2023-03-11T18:42:25.923Z,3.44
2023-03-11T18:45:54.082Z,3.42
2023-03-11T18:49:03.049Z,3.39
2023-03-11T18:52:31.274Z,3.33
2023-03-11T18:55:59.518Z,3.24
2023-03-11T18:59:27.670Z,3.19
2023-03-11T19:02:56.286Z,3.10
2023-03-11T19:06:24.250Z,3.00
2023-03-11T19:13:18.007Z,2.86
2023-03-11T19:16:46.424Z,2.83
2023-03-11T19:20:14.550Z,2.87
2023-03-11T19:27:37.659Z,2.78
2023-03-11T19:31:09.147Z,2.70
2023-03-11T19:34:36.987Z,2.61
2023-03-11T19:38:01.440Z,2.54
2023-03-11T19:44:58.195Z,2.38
2023-03-11T19:51:51.695Z,2.19
2023-03-11T19:58:54.087Z,2.11
2023-03-11T20:02:22.220Z,1.97
2023-03-11T20:05:50.418Z,1.91
2023-03-11T20:09:18.675Z,1.75
2023-03-11T20:13:01.106Z,1.69
2023-03-11T20:16:17.377Z,1.54
2023-03-11T20:19:25.308Z,1.47
2023-03-11T20:22:53.373Z,1.49
2023-03-11T20:26:21.556Z,1.46
2023-03-11T20:29:50.124Z,1.47
2023-03-11T20:33:19.753Z,1.42
2023-03-11T20:36:32.817Z,1.43
2023-03-11T20:40:01.277Z,1.39
2023-03-11T20:43:29.701Z,1.36
2023-03-11T20:46:58.119Z,1.30
2023-03-11T20:50:08.725Z,1.29
2023-03-11T20:53:47.233Z,1.26
2023-03-11T20:57:16.634Z,1.34
2023-03-11T21:00:46.326Z,1.37
2023-03-11T21:03:48.138Z,1.46
2023-03-11T21:07:16.262Z,1.50
2023-03-11T21:10:44.003Z,1.50
2023-03-11T21:14:12.912Z,1.43
2023-03-11T21:17:41.069Z,1.35
2023-03-11T21:21:09.301Z,1.33
2023-03-11T21:24:37.528Z,1.22
2023-03-11T21:28:05.813Z,1.14
2023-03-11T21:31:30.038Z,1.07
2023-03-11T21:34:57.820Z,1.01
2023-03-11T21:38:26.296Z,0.93
2023-03-11T21:41:54.722Z,0.91
2023-03-11T21:45:22.906Z,0.86
2023-03-11T21:48:51.431Z,0.78
2023-03-11T21:52:19.068Z,0.74
2023-03-11T21:55:43.582Z,0.71
2023-03-11T21:59:11.685Z,0.63
2023-03-11T22:02:40.215Z,0.59
2023-03-11T22:06:04.620Z,0.56
2023-03-11T22:12:58.105Z,0.42
2023-03-11T22:16:26.922Z,0.37
2023-03-11T22:19:33.070Z,0.32
2023-03-11T22:23:00.938Z,0.26
2023-03-11T22:26:25.018Z,0.22
2023-03-11T22:36:44.174Z,0.05
2023-03-11T22:43:42.400Z,-0.05
2023-03-11T22:47:10.985Z,-0.13
2023-03-11T22:54:09.466Z,-0.20
2023-03-11T22:57:18.210Z,-0.21
2023-03-11T23:00:49.177Z,-0.17
2023-03-11T23:04:17.390Z,-0.21
2023-03-11T23:07:26.036Z,-0.25
2023-03-11T23:10:55.246Z,-0.24
2023-03-11T23:14:30.695Z,-0.29
2023-03-11T23:17:32.333Z,-0.27
2023-03-11T23:20:40.360Z,-0.23
2023-03-11T23:24:08.734Z,-0.27
2023-03-11T23:27:36.842Z,-0.31
2023-03-11T23:31:05.150Z,-0.26
2023-03-11T23:34:33.416Z,-0.28
2023-03-11T23:38:02.644Z,-0.26
2023-03-11T23:41:30.753Z,-0.28
2023-03-11T23:44:47.145Z,-0.27
2023-03-11T23:48:15.364Z,-0.27
2023-03-11T23:51:43.760Z,-0.36
2023-03-11T23:55:12.149Z,-0.34
2023-03-11T23:58:21.344Z,-0.37
